Time;durP1;ratioP1;P1;durP2;ratioP2;P2;SDS_P1;SDS_P2;PMS_P1;PMS_P2;Temp;Humidity;BMP_temperature;BMP_pressure;BME280_temperature;BME280_humidity;BME280_pressure;Samples;Min_cycle;Max_cycle;Signal;HPM_P1;HPM_P2
2021/01/12 00:02:11;;;;;;;17.50;8.20;;;2.50;99.90;;;;;;5010986;28;20740;-75
2021/01/12 00:04:38;;;;;;;24.07;10.97;;;2.50;99.90;;;;;;5012942;28;20660;-75
2021/01/12 00:07:05;;;;;;;20.67;9.00;;;2.50;99.90;;;;;;5012827;28;20207;-76
2021/01/12 00:09:32;;;;;;;20.67;9.60;;;2.50;99.90;;;;;;5013959;28;20312;-76
2021/01/12 00:11:59;;;;;;;23.37;10.30;;;2.50;99.90;;;;;;5014045;28;20219;-76
2021/01/12 00:14:32;;;;;;;20.83;9.93;;;2.40;99.90;;;;;;5012111;28;20248;-75
2021/01/12 00:16:59;;;;;;;19.63;9.83;;;2.40;99.90;;;;;;5018273;28;20692;-76
2021/01/12 00:19:26;;;;;;;26.80;10.67;;;2.40;99.90;;;;;;5011588;28;20231;-74
2021/01/12 00:21:52;;;;;;;23.43;10.20;;;2.30;99.90;;;;;;5010924;28;20307;-74
2021/01/12 00:24:19;;;;;;;20.57;10.30;;;2.40;99.90;;;;;;5015058;28;20681;-75
2021/01/12 00:26:46;;;;;;;25.47;10.27;;;2.30;99.90;;;;;;5012263;28;20204;-77
2021/01/12 00:29:13;;;;;;;23.30;10.67;;;2.30;99.90;;;;;;5015563;28;20319;-76
2021/01/12 00:31:40;;;;;;;26.93;10.80;;;2.20;99.90;;;;;;5011956;28;20689;-75
2021/01/12 00:34:07;;;;;;;23.40;10.40;;;2.20;99.90;;;;;;5012988;28;20246;-74
2021/01/12 00:36:39;;;;;;;23.97;11.07;;;2.30;99.90;;;;;;5015419;28;20311;-76
2021/01/12 00:39:06;;;;;;;22.83;10.50;;;2.30;99.90;;;;;;5015410;28;20227;-76
2021/01/12 00:41:33;;;;;;;23.70;10.50;;;2.20;99.90;;;;;;5018526;28;20852;-77
2021/01/12 00:43:59;;;;;;;21.80;9.97;;;2.30;99.90;;;;;;5017135;28;20250;-76
2021/01/12 00:46:26;;;;;;;25.60;11.40;;;2.20;99.90;;;;;;5010836;28;20339;-75
2021/01/12 00:48:53;;;;;;;30.50;10.97;;;2.10;99.90;;;;;;5012219;28;20220;-75
2021/01/12 00:51:19;;;;;;;25.67;10.17;;;2.10;99.90;;;;;;5012526;28;20215;-76
2021/01/12 00:53:46;;;;;;;21.90;9.27;;;2.10;99.90;;;;;;5013831;28;20748;-76
2021/01/12 00:56:14;;;;;;;26.37;11.13;;;2.00;99.90;;;;;;5013264;28;20274;-75
2021/01/12 00:58:40;;;;;;;21.30;9.70;;;2.00;99.90;;;;;;5010983;28;20262;-75
2021/01/12 01:01:06;;;;;;;17.00;7.87;;;2.00;99.90;;;;;;5015148;28;20308;-75
2021/01/12 01:03:34;;;;;;;21.10;8.37;;;1.90;99.90;;;;;;5011620;28;20620;-76
2021/01/12 01:06:06;;;;;;;21.53;9.67;;;2.00;99.90;;;;;;5013031;28;20296;-76
2021/01/12 01:08:32;;;;;;;23.90;9.67;;;1.90;99.90;;;;;;5009486;28;20254;-75
2021/01/12 01:11:01;;;;;;;22.77;8.37;;;1.90;99.90;;;;;;5011905;28;20211;-75
2021/01/12 01:13:28;;;;;;;21.47;9.07;;;1.90;99.90;;;;;;5015029;28;20302;-76
2021/01/12 01:15:54;;;;;;;21.37;8.93;;;1.90;99.90;;;;;;5017956;28;20251;-76
2021/01/12 01:18:20;;;;;;;22.20;8.23;;;1.90;99.90;;;;;;5015152;28;20231;-76
2021/01/12 01:20:49;;;;;;;20.27;7.63;;;1.90;99.90;;;;;;5010143;28;20295;-76
2021/01/12 01:23:15;;;;;;;20.20;7.83;;;1.90;99.90;;;;;;5012362;28;20243;-75
2021/01/12 01:25:41;;;;;;;22.80;8.40;;;1.90;99.90;;;;;;5012846;28;20223;-76
2021/01/12 01:28:08;;;;;;;11.87;5.60;;;1.90;99.90;;;;;;5013511;28;20304;-75
2021/01/12 01:30:34;;;;;;;16.90;6.17;;;2.00;99.90;;;;;;5013857;28;20271;-78
2021/01/12 01:33:01;;;;;;;20.20;7.50;;;2.00;99.90;;;;;;5014383;28;20472;-76
2021/01/12 01:35:27;;;;;;;11.70;6.00;;;2.00;99.90;;;;;;5011570;28;20288;-76
2021/01/12 01:37:55;;;;;;;14.50;6.87;;;2.00;99.90;;;;;;5014548;28;20316;-76
2021/01/12 01:40:22;;;;;;;18.47;5.77;;;1.90;99.90;;;;;;5013635;28;20418;-76
2021/01/12 01:42:49;;;;;;;11.47;5.63;;;1.90;99.90;;;;;;5016394;28;20304;-76
2021/01/12 01:45:17;;;;;;;12.33;6.07;;;2.00;99.90;;;;;;5010438;28;20278;-75
2021/01/12 01:47:45;;;;;;;16.13;5.97;;;2.10;99.90;;;;;;5012571;28;20666;-75
2021/01/12 01:50:14;;;;;;;10.57;5.47;;;2.00;99.90;;;;;;5008058;28;20204;-75
2021/01/12 01:52:43;;;;;;;16.43;5.97;;;2.00;99.90;;;;;;5010877;28;20255;-75
2021/01/12 01:55:13;;;;;;;23.63;7.10;;;2.00;99.90;;;;;;5010658;28;20299;-75
2021/01/12 01:57:39;;;;;;;12.80;5.40;;;2.00;99.90;;;;;;5012389;28;20224;-75
2021/01/12 02:00:07;;;;;;;30.67;6.60;;;2.00;99.90;;;;;;5007703;28;20283;-75
2021/01/12 02:02:38;;;;;;;15.33;5.40;;;2.00;99.90;;;;;;5012550;28;20733;-75
2021/01/12 02:05:09;;;;;;;15.17;5.70;;;2.00;99.90;;;;;;5013387;28;20200;-75
2021/01/12 02:07:40;;;;;;;21.13;6.33;;;2.00;99.90;;;;;;5010378;28;20238;-75
2021/01/12 02:10:08;;;;;;;11.63;6.00;;;2.10;99.90;;;;;;5010321;28;20210;-75
2021/01/12 02:12:45;;;;;;;14.53;6.40;;;2.10;99.90;;;;;;5009956;28;20211;-75
2021/01/12 02:15:15;;;;;;;17.33;5.97;;;2.00;99.90;;;;;;5015067;28;20246;-75
2021/01/12 02:17:43;;;;;;;20.30;6.93;;;2.00;99.90;;;;;;5014549;28;20228;-75
2021/01/12 02:20:11;;;;;;;18.60;6.30;;;2.00;99.90;;;;;;5013231;28;20208;-75
2021/01/12 02:22:42;;;;;;;15.70;5.93;;;2.00;99.90;;;;;;5011815;28;20243;-75
2021/01/12 02:25:10;;;;;;;15.63;5.63;;;2.00;99.90;;;;;;5012819;28;20689;-75
2021/01/12 02:27:37;;;;;;;10.33;4.77;;;2.10;99.90;;;;;;5015707;28;20228;-75
2021/01/12 02:30:05;;;;;;;11.47;5.27;;;2.20;99.90;;;;;;5010373;28;20235;-75
2021/01/12 02:32:31;;;;;;;10.80;5.10;;;2.20;99.90;;;;;;5009538;28;20219;-75
2021/01/12 02:35:00;;;;;;;10.70;5.17;;;2.20;99.90;;;;;;5011585;28;20216;-75
2021/01/12 02:37:27;;;;;;;11.83;5.90;;;2.30;99.90;;;;;;5011098;28;20278;-75
2021/01/12 02:39:58;;;;;;;9.10;4.67;;;2.30;99.90;;;;;;5008384;28;20230;-76
2021/01/12 02:42:26;;;;;;;9.80;5.43;;;2.30;99.90;;;;;;5011034;28;20208;-75
2021/01/12 02:44:52;;;;;;;7.97;4.00;;;2.30;99.90;;;;;;5015365;28;20243;-75
2021/01/12 02:47:19;;;;;;;12.47;5.57;;;2.30;99.90;;;;;;5013710;28;20208;-75
2021/01/12 02:49:45;;;;;;;13.37;5.10;;;2.30;99.90;;;;;;5012974;28;20258;-75
2021/01/12 02:52:13;;;;;;;14.40;5.20;;;2.30;99.90;;;;;;5016520;28;20685;-75
2021/01/12 02:54:41;;;;;;;12.90;4.57;;;2.20;99.90;;;;;;5015434;28;20495;-75
2021/01/12 02:57:08;;;;;;;10.90;5.10;;;2.20;99.90;;;;;;5015442;28;20306;-75
2021/01/12 02:59:35;;;;;;;9.00;5.13;;;2.30;99.90;;;;;;5015107;28;20266;-75
2021/01/12 03:02:02;;;;;;;9.60;5.10;;;2.30;99.90;;;;;;5015562;28;20287;-75
2021/01/12 03:04:28;;;;;;;8.40;4.60;;;2.30;99.90;;;;;;5014080;28;20208;-75
2021/01/12 03:06:55;;;;;;;13.90;5.83;;;2.30;99.90;;;;;;5019695;28;20291;-75
2021/01/12 03:09:21;;;;;;;10.70;5.80;;;2.30;99.90;;;;;;5011629;28;20661;-75
2021/01/12 03:11:52;;;;;;;14.27;5.67;;;2.20;99.90;;;;;;5018977;28;20545;-75
2021/01/12 03:14:18;;;;;;;14.53;6.00;;;2.20;99.90;;;;;;5031042;28;20218;-75
2021/01/12 03:16:46;;;;;;;13.17;6.33;;;2.10;99.90;;;;;;5022858;28;20269;-75
2021/01/12 03:19:12;;;;;;;11.53;5.73;;;2.10;99.90;;;;;;5015638;28;20311;-75
2021/01/12 03:21:39;;;;;;;15.70;5.90;;;2.10;99.90;;;;;;5014088;28;20231;-75
2021/01/12 03:24:07;;;;;;;15.70;5.97;;;2.10;99.90;;;;;;5013525;28;20211;-75
2021/01/12 03:26:33;;;;;;;8.57;4.80;;;2.00;99.90;;;;;;5015312;28;20235;-75
2021/01/12 03:28:59;;;;;;;16.60;6.27;;;2.00;99.90;;;;;;5011692;28;20262;-75
2021/01/12 03:31:26;;;;;;;11.60;5.67;;;2.00;99.90;;;;;;5012305;28;20232;-75
2021/01/12 03:33:53;;;;;;;10.43;5.60;;;2.00;99.90;;;;;;5011899;28;20247;-75
2021/01/12 03:36:20;;;;;;;13.40;5.50;;;2.00;99.90;;;;;;5012089;28;20732;-75
2021/01/12 03:38:46;;;;;;;10.10;5.13;;;2.10;99.90;;;;;;5012264;28;20627;-75
2021/01/12 03:41:13;;;;;;;10.70;5.33;;;2.00;99.90;;;;;;5010417;28;20295;-75
2021/01/12 03:43:39;;;;;;;10.23;5.10;;;2.00;99.90;;;;;;5013651;28;20223;-75
2021/01/12 03:46:05;;;;;;;16.90;5.87;;;2.00;99.90;;;;;;5010904;28;21729;-75
2021/01/12 03:48:32;;;;;;;15.90;6.20;;;2.00;99.90;;;;;;5011715;28;20220;-75
2021/01/12 03:50:59;;;;;;;15.63;5.70;;;2.00;99.90;;;;;;5009689;28;20236;-75
2021/01/12 03:53:26;;;;;;;13.27;5.90;;;2.00;99.90;;;;;;5008596;28;20482;-75
2021/01/12 03:55:52;;;;;;;13.93;5.67;;;2.00;99.90;;;;;;5009721;28;20204;-75
2021/01/12 03:58:19;;;;;;;12.57;5.50;;;1.90;99.90;;;;;;5015965;28;20315;-75
2021/01/12 04:00:45;;;;;;;10.70;4.97;;;1.90;99.90;;;;;;5011444;28;20672;-75
2021/01/12 04:03:11;;;;;;;15.60;5.20;;;2.00;99.90;;;;;;5013414;28;20203;-75
2021/01/12 04:05:39;;;;;;;9.03;4.43;;;2.00;99.90;;;;;;5012794;28;20548;-75
2021/01/12 04:08:09;;;;;;;14.77;4.37;;;2.00;99.90;;;;;;5010088;28;20306;-76
2021/01/12 04:10:36;;;;;;;11.07;3.80;;;2.00;99.90;;;;;;5008408;28;20681;-75
2021/01/12 04:13:02;;;;;;;6.20;3.27;;;2.00;99.90;;;;;;5013214;28;20204;-75
2021/01/12 04:15:29;;;;;;;6.60;3.33;;;2.10;99.90;;;;;;5017519;28;20350;-75
2021/01/12 04:17:55;;;;;;;7.33;3.33;;;2.10;99.90;;;;;;5009820;28;20961;-76
2021/01/12 04:20:22;;;;;;;7.70;4.17;;;2.10;99.90;;;;;;5011668;28;20614;-75
2021/01/12 04:22:48;;;;;;;6.23;3.37;;;2.20;99.90;;;;;;5012003;28;20220;-75
2021/01/12 04:25:16;;;;;;;6.97;3.37;;;2.10;99.90;;;;;;5010480;28;20204;-75
2021/01/12 04:27:42;;;;;;;9.87;3.73;;;2.20;99.90;;;;;;5013733;28;20658;-75
2021/01/12 04:30:09;;;;;;;5.27;2.57;;;2.20;99.90;;;;;;5011092;28;20226;-75
2021/01/12 04:32:36;;;;;;;14.17;4.90;;;2.20;99.90;;;;;;5010453;28;20694;-75
2021/01/12 04:35:03;;;;;;;12.40;3.83;;;2.20;99.90;;;;;;5012216;28;20302;-74
2021/01/12 04:37:29;;;;;;;9.60;3.50;;;2.20;99.90;;;;;;5011862;28;20266;-74
2021/01/12 04:39:56;;;;;;;5.73;3.13;;;2.10;99.90;;;;;;5006412;28;20776;-73
2021/01/12 04:42:23;;;;;;;10.47;3.43;;;2.20;99.90;;;;;;5010134;28;20247;-74
2021/01/12 04:44:49;;;;;;;8.77;3.10;;;2.10;99.90;;;;;;5008298;28;20517;-74
2021/01/12 04:47:16;;;;;;;6.27;3.53;;;2.10;99.90;;;;;;5006796;28;20207;-74
2021/01/12 04:49:42;;;;;;;12.80;3.60;;;2.20;99.90;;;;;;5007680;28;20232;-76
2021/01/12 04:52:09;;;;;;;9.73;3.40;;;2.20;99.90;;;;;;5011446;28;20626;-74
2021/01/12 04:54:35;;;;;;;8.90;3.20;;;2.10;99.90;;;;;;5011358;28;20227;-74
2021/01/12 04:57:02;;;;;;;8.97;3.37;;;2.10;99.90;;;;;;5012239;28;20252;-74
2021/01/12 04:59:31;;;;;;;7.30;2.93;;;2.10;99.90;;;;;;5012191;28;20220;-74
2021/01/12 05:01:58;;;;;;;11.30;3.20;;;2.10;99.90;;;;;;5008931;28;20579;-74
2021/01/12 05:04:25;;;;;;;8.23;3.10;;;2.10;99.90;;;;;;5009156;28;20227;-74
2021/01/12 05:06:54;;;;;;;8.97;3.13;;;2.00;99.90;;;;;;5012241;28;20294;-74
2021/01/12 05:09:21;;;;;;;6.87;2.53;;;2.00;99.90;;;;;;5012904;28;21848;-74
2021/01/12 05:11:48;;;;;;;4.40;1.80;;;2.00;99.90;;;;;;5009422;28;20295;-74
2021/01/12 05:14:16;;;;;;;6.20;2.53;;;2.00;99.90;;;;;;5009542;28;20283;-76
2021/01/12 05:16:48;;;;;;;9.07;2.40;;;2.00;99.90;;;;;;5013341;28;20286;-74
2021/01/12 05:19:20;;;;;;;5.47;2.00;;;2.00;99.90;;;;;;5009124;28;20787;-77
2021/01/12 05:21:47;;;;;;;11.57;4.20;;;2.00;99.90;;;;;;5015898;28;20570;-76
2021/01/12 05:24:18;;;;;;;14.93;5.40;;;2.00;99.90;;;;;;5010063;28;20752;-74
2021/01/12 05:26:44;;;;;;;11.97;4.30;;;2.00;99.90;;;;;;5009205;28;20204;-74
2021/01/12 05:29:10;;;;;;;10.77;3.20;;;2.00;99.90;;;;;;5010341;28;20307;-76
2021/01/12 05:31:38;;;;;;;12.73;3.13;;;2.00;99.90;;;;;;5011225;28;20654;-74
2021/01/12 05:34:07;;;;;;;17.37;3.73;;;2.00;99.90;;;;;;5007897;28;20257;-74
2021/01/12 05:36:35;;;;;;;12.33;4.97;;;2.00;99.90;;;;;;5012839;28;20687;-77
2021/01/12 05:39:03;;;;;;;15.73;5.50;;;2.00;99.90;;;;;;5006229;28;20351;-75
2021/01/12 05:41:30;;;;;;;16.60;4.67;;;1.90;99.90;;;;;;5008978;28;20235;-74
2021/01/12 05:43:57;;;;;;;15.10;4.80;;;1.80;99.90;;;;;;5014336;28;20232;-74
2021/01/12 05:46:24;;;;;;;9.67;4.27;;;1.70;99.90;;;;;;5013644;28;20550;-74
2021/01/12 05:48:50;;;;;;;10.27;3.97;;;1.70;99.90;;;;;;5018411;28;20216;-74
2021/01/12 05:51:17;;;;;;;9.77;2.93;;;1.70;99.90;;;;;;5020631;28;20236;-77
2021/01/12 05:54:06;;;;;;;11.90;3.20;;;1.80;99.90;;;;;;5007592;28;20211;-77
2021/01/12 05:56:33;;;;;;;9.40;3.20;;;1.80;99.90;;;;;;5012149;28;20285;-76
2021/01/12 05:59:01;;;;;;;7.77;3.30;;;1.80;99.90;;;;;;5014801;28;20263;-74
2021/01/12 06:01:46;;;;;;;10.93;3.33;;;1.80;99.90;;;;;;5010807;28;20680;-76
2021/01/12 06:04:14;;;;;;;7.33;2.90;;;1.80;99.90;;;;;;5007499;28;20569;-74
2021/01/12 06:06:43;;;;;;;4.93;2.73;;;1.80;99.90;;;;;;5007383;28;20669;-74
2021/01/12 06:09:11;;;;;;;8.90;3.00;;;1.80;99.90;;;;;;5013710;28;20235;-77
2021/01/12 06:11:38;;;;;;;6.57;3.07;;;1.90;99.90;;;;;;5012657;28;20694;-74
2021/01/12 06:14:08;;;;;;;7.03;3.50;;;1.90;99.90;;;;;;5008824;28;20282;-76
2021/01/12 06:16:36;;;;;;;8.13;3.47;;;1.90;99.90;;;;;;5010913;28;20200;-77
2021/01/12 06:19:09;;;;;;;8.77;3.93;;;1.90;99.90;;;;;;5011232;28;20325;-74
2021/01/12 06:21:36;;;;;;;15.37;5.80;;;1.80;99.90;;;;;;5016103;28;20654;-74
2021/01/12 06:26:31;;;;;;;14.17;5.50;;;1.80;99.90;;;;;;5018316;28;20230;-77
2021/01/12 06:28:58;;;;;;;12.57;4.27;;;1.90;99.90;;;;;;5010366;28;20326;-74
2021/01/12 06:31:24;;;;;;;9.10;3.30;;;1.90;99.90;;;;;;5018485;23;20287;-72
2021/01/12 06:33:58;;;;;;;9.97;4.37;;;1.90;99.90;;;;;;5015223;28;20254;-71
2021/01/12 06:36:26;;;;;;;11.37;4.40;;;1.90;99.90;;;;;;5022919;28;20614;-72
2021/01/12 06:38:56;;;;;;;10.70;4.13;;;1.90;99.90;;;;;;5018062;28;20227;-72
2021/01/12 06:41:23;;;;;;;12.60;3.17;;;1.80;99.90;;;;;;5019286;28;20352;-72
2021/01/12 06:43:50;;;;;;;11.50;4.20;;;1.80;99.90;;;;;;5020830;28;20209;-73
2021/01/12 06:46:17;;;;;;;10.23;3.90;;;1.80;99.90;;;;;;5019802;28;20286;-72
2021/01/12 06:48:45;;;;;;;10.53;3.43;;;1.80;99.90;;;;;;5021464;28;20306;-74
2021/01/12 06:51:13;;;;;;;8.13;3.90;;;1.80;99.90;;;;;;5023073;28;20685;-71
2021/01/12 06:53:46;;;;;;;9.90;3.37;;;1.90;99.90;;;;;;5017366;28;20285;-73
2021/01/12 06:56:12;;;;;;;13.97;3.07;;;1.90;99.90;;;;;;5020967;28;20212;-71
2021/01/12 06:58:45;;;;;;;6.63;2.90;;;1.90;99.90;;;;;;5021437;28;20274;-71
2021/01/12 07:01:21;;;;;;;14.57;4.40;;;1.90;99.90;;;;;;5018295;28;20420;-73
2021/01/12 07:03:50;;;;;;;8.90;3.50;;;2.00;99.90;;;;;;5016347;28;20685;-75
2021/01/12 07:06:25;;;;;;;14.20;4.70;;;2.00;99.90;;;;;;5019331;28;20200;-73
2021/01/12 07:08:54;;;;;;;8.10;3.80;;;2.00;99.90;;;;;;5018548;28;20218;-72
2021/01/12 07:11:21;;;;;;;10.93;3.67;;;2.00;99.90;;;;;;5020200;28;20215;-75
2021/01/12 07:13:51;;;;;;;14.43;3.50;;;2.00;99.90;;;;;;5020326;28;20212;-72
2021/01/12 07:16:18;;;;;;;13.17;4.50;;;2.00;99.90;;;;;;5020625;28;20239;-76
2021/01/12 07:18:57;;;;;;;15.17;8.07;;;2.00;99.90;;;;;;5015775;28;20232;-75
2021/01/12 07:21:29;;;;;;;7.53;2.87;;;1.90;99.90;;;;;;5017146;28;20234;-75
2021/01/12 07:24:01;;;;;;;10.37;2.90;;;2.00;99.90;;;;;;5020347;28;20680;-72
2021/01/12 07:26:30;;;;;;;13.57;3.10;;;2.10;99.90;;;;;;5018880;28;20212;-72
2021/01/12 07:29:04;;;;;;;6.33;2.87;;;2.10;99.90;;;;;;5018226;28;20677;-73
2021/01/12 07:31:31;;;;;;;13.07;3.87;;;2.10;99.90;;;;;;5019778;28;20312;-71
2021/01/12 07:33:58;;;;;;;7.23;3.27;;;2.10;99.90;;;;;;5016333;28;20673;-72
2021/01/12 07:36:24;;;;;;;7.57;3.27;;;2.20;99.90;;;;;;5018542;28;20740;-72
2021/01/12 07:38:51;;;;;;;8.73;1.93;;;2.10;99.90;;;;;;5020938;28;20266;-70
2021/01/12 07:41:19;;;;;;;5.13;2.67;;;2.10;99.90;;;;;;5019496;28;20204;-71
2021/01/12 07:43:46;;;;;;;9.30;2.07;;;2.20;99.90;;;;;;5017156;28;20618;-71
2021/01/12 07:46:12;;;;;;;6.23;2.10;;;2.20;99.90;;;;;;5015141;28;20299;-73
2021/01/12 07:48:40;;;;;;;8.63;2.53;;;2.30;99.90;;;;;;5016385;28;20302;-72
2021/01/12 07:51:06;;;;;;;9.03;3.17;;;2.30;99.90;;;;;;5014359;28;20261;-72
2021/01/12 07:53:33;;;;;;;12.70;2.83;;;2.30;99.90;;;;;;5017012;28;20732;-72
2021/01/12 07:56:01;;;;;;;3.77;1.70;;;2.30;99.90;;;;;;4958109;28;20327;-72
2021/01/12 07:58:28;;;;;;;4.23;2.00;;;2.40;99.90;;;;;;5011753;28;20673;-70
2021/01/12 08:00:55;;;;;;;7.40;2.07;;;2.40;99.90;;;;;;5017860;28;20243;-72
2021/01/12 08:03:26;;;;;;;8.73;2.00;;;2.40;99.90;;;;;;5018718;28;20672;-72
2021/01/12 08:05:59;;;;;;;5.10;1.20;;;2.40;99.90;;;;;;5019060;28;20250;-74
2021/01/12 08:08:26;;;;;;;4.40;1.40;;;2.50;99.90;;;;;;5018606;28;20306;-73
2021/01/12 08:10:53;;;;;;;7.83;3.70;;;2.60;99.90;;;;;;5014904;28;21656;-74
2021/01/12 08:13:19;;;;;;;5.17;1.57;;;2.60;99.90;;;;;;5016690;28;20212;-73
2021/01/12 08:15:48;;;;;;;4.00;1.87;;;2.60;99.90;;;;;;5011694;28;20204;-73
2021/01/12 08:18:16;;;;;;;9.10;4.53;;;2.60;99.90;;;;;;5014840;28;20232;-76
2021/01/12 08:20:43;;;;;;;10.27;1.53;;;2.60;99.90;;;;;;5012987;28;20291;-76
2021/01/12 08:23:13;;;;;;;8.07;2.43;;;2.70;99.90;;;;;;5017037;28;20554;-73
2021/01/12 08:25:40;;;;;;;37.03;19.43;;;2.70;99.90;;;;;;5018474;28;20211;-71
2021/01/12 08:28:09;;;;;;;8.03;3.30;;;2.70;99.90;;;;;;5017387;28;20211;-71
2021/01/12 08:30:37;;;;;;;3.93;1.80;;;2.70;99.90;;;;;;5018289;28;20207;-71
2021/01/12 08:33:10;;;;;;;3.13;1.13;;;2.90;99.90;;;;;;5018841;28;20254;-71
2021/01/12 08:35:39;;;;;;;3.83;1.30;;;3.00;99.90;;;;;;5017263;28;20282;-71
2021/01/12 08:38:07;;;;;;;5.23;2.30;;;3.20;99.90;;;;;;5019999;28;20235;-72
2021/01/12 08:40:36;;;;;;;2.43;1.00;;;3.30;99.90;;;;;;5011585;28;20236;-74
2021/01/12 08:43:10;;;;;;;1.97;0.77;;;3.20;99.90;;;;;;5014741;28;20290;-72
2021/01/12 08:45:37;;;;;;;2.67;1.00;;;3.30;99.90;;;;;;5004500;28;20294;-74
2021/01/12 08:48:09;;;;;;;3.80;0.83;;;3.40;99.90;;;;;;5012519;28;20692;-71
2021/01/12 08:50:36;;;;;;;1.80;0.77;;;3.50;99.90;;;;;;5013866;28;20203;-74
2021/01/12 08:53:02;;;;;;;4.40;0.77;;;3.50;99.90;;;;;;5016438;28;20334;-72
2021/01/12 08:55:29;;;;;;;1.80;0.90;;;3.40;99.90;;;;;;5019347;28;20299;-72
2021/01/12 08:57:57;;;;;;;2.07;0.63;;;3.40;99.90;;;;;;5020006;28;20234;-71
2021/01/12 09:00:28;;;;;;;1.07;0.50;;;3.50;99.90;;;;;;5014747;28;20679;-72
2021/01/12 09:02:55;;;;;;;2.70;0.80;;;3.50;99.90;;;;;;5014595;28;20208;-72
2021/01/12 09:05:22;;;;;;;1.43;0.70;;;3.50;99.90;;;;;;5012559;28;20268;-74
2021/01/12 09:07:59;;;;;;;2.00;0.80;;;3.50;99.90;;;;;;5009433;28;20937;-74
2021/01/12 09:10:26;;;;;;;5.50;2.03;;;3.60;99.90;;;;;;5010364;28;20234;-71
2021/01/12 09:12:54;;;;;;;4.40;1.70;;;3.70;99.90;;;;;;5009354;28;20245;-73
2021/01/12 09:15:26;;;;;;;3.70;1.20;;;3.60;99.90;;;;;;5016667;28;20579;-71
2021/01/12 09:18:02;;;;;;;4.97;2.07;;;3.60;99.90;;;;;;5010783;28;20580;-73
2021/01/12 09:20:29;;;;;;;4.03;1.17;;;3.70;99.90;;;;;;5008637;28;20302;-71
2021/01/12 09:23:03;;;;;;;1.60;0.77;;;3.70;99.90;;;;;;5011315;28;20695;-74
2021/01/12 09:25:32;;;;;;;0.90;0.70;;;3.80;99.90;;;;;;5010134;28;20206;-72
2021/01/12 09:28:13;;;;;;;1.27;0.90;;;3.90;99.90;;;;;;5013441;28;20266;-74
2021/01/12 09:30:42;;;;;;;0.90;0.40;;;3.90;99.90;;;;;;5010281;28;21050;-71
2021/01/12 09:33:08;;;;;;;1.27;0.43;;;3.90;99.90;;;;;;5011361;28;20307;-72
2021/01/12 09:35:35;;;;;;;1.23;0.87;;;3.90;99.90;;;;;;5013584;28;20732;-72
2021/01/12 09:38:03;;;;;;;1.00;0.70;;;4.00;99.90;;;;;;5014543;28;20315;-72
2021/01/12 09:40:29;;;;;;;0.83;0.60;;;4.00;99.90;;;;;;5010664;28;20204;-72
2021/01/12 09:42:57;;;;;;;1.30;0.50;;;4.00;99.90;;;;;;5009937;28;20592;-71
2021/01/12 09:45:26;;;;;;;1.00;0.57;;;4.00;99.90;;;;;;5008457;28;20200;-73
2021/01/12 09:47:54;;;;;;;1.33;0.60;;;3.90;99.90;;;;;;5019431;28;20212;-72
2021/01/12 09:50:20;;;;;;;1.30;0.50;;;4.00;99.90;;;;;;5011027;28;20282;-72
2021/01/12 09:52:47;;;;;;;3.23;1.00;;;4.00;99.90;;;;;;5017085;28;20651;-72
2021/01/12 09:55:13;;;;;;;10.63;2.17;;;4.10;99.90;;;;;;5014195;28;20203;-73
2021/01/12 09:57:40;;;;;;;8.27;1.30;;;4.10;99.90;;;;;;5020487;28;20310;-71
2021/01/12 10:00:08;;;;;;;4.93;2.20;;;4.10;99.90;;;;;;5020436;28;20652;-71
2021/01/12 10:02:35;;;;;;;10.60;2.63;;;4.10;99.90;;;;;;5012487;28;20291;-71
2021/01/12 10:05:02;;;;;;;6.43;2.13;;;4.10;99.90;;;;;;5018084;28;20282;-72
2021/01/12 10:07:28;;;;;;;6.33;1.20;;;4.00;99.90;;;;;;5020161;28;20560;-71
2021/01/12 10:09:55;;;;;;;1.73;0.97;;;4.00;99.90;;;;;;5018557;28;20258;-71
2021/01/12 10:12:21;;;;;;;3.60;0.80;;;4.00;99.90;;;;;;5013420;28;20640;-72
2021/01/12 10:14:47;;;;;;;5.77;0.90;;;4.00;99.90;;;;;;5011558;28;20211;-72
2021/01/12 10:17:14;;;;;;;3.90;0.80;;;4.00;99.90;;;;;;5021735;28;20200;-72
2021/01/12 10:19:40;;;;;;;0.60;0.50;;;4.00;99.90;;;;;;5015875;28;20305;-72
2021/01/12 10:22:08;;;;;;;2.90;1.03;;;4.00;99.90;;;;;;5016613;28;20653;-71
2021/01/12 10:24:34;;;;;;;7.83;2.43;;;4.00;99.90;;;;;;5019931;28;20686;-74
2021/01/12 10:27:01;;;;;;;7.10;1.97;;;3.90;99.90;;;;;;5020690;28;20208;-74
2021/01/12 10:29:29;;;;;;;5.60;2.10;;;4.00;99.90;;;;;;5016999;28;20220;-72
2021/01/12 10:31:59;;;;;;;2.10;1.00;;;4.00;99.90;;;;;;5017854;28;20219;-72
2021/01/12 10:34:25;;;;;;;6.00;1.80;;;4.10;99.90;;;;;;5016926;28;20231;-73
2021/01/12 10:36:52;;;;;;;5.10;1.77;;;4.10;99.90;;;;;;5016517;28;20669;-71
2021/01/12 10:39:19;;;;;;;1.93;1.27;;;4.10;99.90;;;;;;5015443;28;20311;-72
2021/01/12 10:41:46;;;;;;;4.73;1.90;;;4.10;99.90;;;;;;5018876;28;20680;-71
2021/01/12 10:44:13;;;;;;;4.67;1.03;;;4.30;99.90;;;;;;5017465;28;20199;-74
2021/01/12 10:46:39;;;;;;;1.07;0.80;;;4.30;99.90;;;;;;5017354;28;20242;-74
2021/01/12 10:49:06;;;;;;;1.90;1.30;;;4.30;99.90;;;;;;5018675;28;20747;-71
2021/01/12 10:51:32;;;;;;;1.87;0.90;;;4.30;99.90;;;;;;5015399;28;20291;-71
2021/01/12 10:53:58;;;;;;;2.90;1.80;;;4.30;99.90;;;;;;5018014;28;20279;-71
2021/01/12 10:56:26;;;;;;;3.10;0.93;;;4.40;99.90;;;;;;5015830;28;20717;-74
2021/01/12 10:58:52;;;;;;;2.03;0.50;;;4.40;99.90;;;;;;5013436;28;20247;-71
2021/01/12 11:01:20;;;;;;;1.40;0.70;;;4.40;99.90;;;;;;5013902;28;20215;-71
2021/01/12 11:03:46;;;;;;;1.40;0.80;;;4.40;99.90;;;;;;5016010;28;20664;-71
2021/01/12 11:06:15;;;;;;;2.10;1.10;;;4.40;99.90;;;;;;5018888;28;20699;-72
2021/01/12 11:08:42;;;;;;;1.43;0.80;;;4.40;99.90;;;;;;5015287;28;21590;-72
2021/01/12 11:11:08;;;;;;;0.87;0.67;;;4.40;99.90;;;;;;5016918;28;20208;-72
2021/01/12 11:13:36;;;;;;;3.13;2.43;;;4.40;99.90;;;;;;5012757;28;20207;-72
2021/01/12 11:16:02;;;;;;;2.07;1.30;;;4.50;99.90;;;;;;5015296;28;20209;-74
2021/01/12 11:18:29;;;;;;;3.20;1.50;;;4.50;99.90;;;;;;5022887;28;20314;-73
2021/01/12 11:20:55;;;;;;;1.20;0.80;;;4.60;99.90;;;;;;5016839;28;20585;-72
2021/01/12 11:23:22;;;;;;;1.50;1.03;;;4.70;99.90;;;;;;5019220;28;20874;-74
2021/01/12 11:25:49;;;;;;;8.77;5.80;;;4.70;99.90;;;;;;5014603;28;20211;-71
2021/01/12 11:28:15;;;;;;;13.93;7.60;;;4.70;99.90;;;;;;5013344;28;20227;-72
2021/01/12 11:30:43;;;;;;;1.57;1.13;;;4.80;99.90;;;;;;5014084;28;20869;-71
2021/01/12 11:33:10;;;;;;;7.63;4.23;;;4.70;99.90;;;;;;5021151;28;20764;-72
2021/01/12 11:35:37;;;;;;;1.80;0.90;;;4.90;99.90;;;;;;5019469;28;20273;-73
2021/01/12 11:38:03;;;;;;;3.93;2.20;;;4.90;99.90;;;;;;5018649;28;20270;-74
2021/01/12 11:40:30;;;;;;;2.87;0.93;;;4.80;99.90;;;;;;5018051;28;20290;-72
2021/01/12 11:42:58;;;;;;;2.23;1.43;;;4.80;99.90;;;;;;5019765;28;20203;-71
2021/01/12 11:45:24;;;;;;;2.10;0.70;;;4.90;99.90;;;;;;5012608;28;20715;-73
2021/01/12 11:47:52;;;;;;;7.57;3.90;;;4.90;99.90;;;;;;5015300;28;20776;-73
2021/01/12 11:50:18;;;;;;;1.40;1.10;;;4.80;99.90;;;;;;5015156;28;20676;-72
2021/01/12 11:52:44;;;;;;;2.10;1.30;;;4.80;99.90;;;;;;5017055;28;20606;-72
2021/01/12 11:55:11;;;;;;;2.97;1.73;;;4.90;99.90;;;;;;5017832;28;20286;-73
2021/01/12 11:57:38;;;;;;;3.20;2.40;;;4.80;99.90;;;;;;5016120;28;20318;-73
2021/01/12 12:00:06;;;;;;;5.90;4.23;;;4.90;99.90;;;;;;5016700;28;20343;-72
2021/01/12 12:02:32;;;;;;;2.13;1.70;;;4.90;99.90;;;;;;5020750;28;20291;-72
2021/01/12 12:05:00;;;;;;;5.10;3.03;;;5.00;99.90;;;;;;5019065;28;20661;-72
2021/01/12 12:07:27;;;;;;;2.67;1.70;;;5.10;99.90;;;;;;5018530;28;20322;-72
2021/01/12 12:09:53;;;;;;;6.60;2.80;;;5.00;99.90;;;;;;5014085;28;20220;-73
2021/01/12 12:12:20;;;;;;;5.87;4.17;;;5.10;99.90;;;;;;5016163;28;20624;-72
2021/01/12 12:14:48;;;;;;;6.63;5.53;;;5.10;99.90;;;;;;5017660;28;20208;-72
2021/01/12 12:17:14;;;;;;;1.30;0.80;;;5.10;99.90;;;;;;5018276;28;20319;-75
2021/01/12 12:19:44;;;;;;;3.37;1.77;;;5.00;99.90;;;;;;5013675;28;20583;-71
2021/01/12 12:22:11;;;;;;;4.93;2.77;;;5.00;99.90;;;;;;5012151;28;20299;-73
2021/01/12 12:24:37;;;;;;;1.87;0.60;;;5.00;99.90;;;;;;5012855;28;20210;-72
2021/01/12 12:27:04;;;;;;;2.47;1.07;;;4.90;99.90;;;;;;5013537;28;20294;-72
2021/01/12 12:29:30;;;;;;;4.37;1.40;;;4.90;99.90;;;;;;5010845;28;20258;-73
2021/01/12 12:32:03;;;;;;;3.83;1.40;;;4.90;99.90;;;;;;5023789;23;20227;-74
2021/01/12 12:34:30;;;;;;;2.67;0.80;;;4.90;99.90;;;;;;5010530;28;20218;-73
2021/01/12 12:36:57;;;;;;;2.83;0.87;;;4.80;99.90;;;;;;5015093;28;20203;-74
2021/01/12 12:39:24;;;;;;;1.63;0.33;;;4.80;99.90;;;;;;5009897;28;20259;-74
2021/01/12 12:41:50;;;;;;;0.90;0.60;;;4.80;99.90;;;;;;5007120;28;20231;-75
2021/01/12 12:44:17;;;;;;;0.97;0.70;;;4.90;99.90;;;;;;5007260;28;20848;-74
2021/01/12 12:46:45;;;;;;;1.57;0.80;;;4.80;99.90;;;;;;5001931;28;20290;-74
2021/01/12 12:49:11;;;;;;;1.67;0.80;;;4.90;99.90;;;;;;5005091;28;20684;-74
2021/01/12 12:51:38;;;;;;;0.70;0.50;;;4.90;99.90;;;;;;5010417;28;20204;-74
2021/01/12 12:54:06;;;;;;;1.67;1.10;;;5.00;99.90;;;;;;5014563;28;20351;-74
2021/01/12 12:56:33;;;;;;;2.67;1.00;;;5.00;99.90;;;;;;5016242;28;20199;-74
2021/01/12 12:59:00;;;;;;;2.07;1.27;;;4.90;99.90;;;;;;5018210;28;20239;-74